ADDS METAR Data INFO
IDs: Format: Raw Decoded Include TAF

Data at: 1145 UTC 21 Jun 2018

KFTG 211142Z AUTO 11011KT 10SM CLR 12/10 A3020 RMK AO2 T01200097
KFTG 211118Z AUTO 12008KT 10SM CLR 12/10 A3020 RMK AO2 T01240101
KFTG 211100Z AUTO 12009KT 10SM CLR 12/10 A3020 RMK AO2 T01210100
KFTG 211043Z AUTO 12010KT 10SM CLR 13/10 A3020 RMK AO2 T01280104
KFTG 211018Z AUTO 11010KT 10SM CLR 12/10 A3022 RMK AO2 T01220102
KFTG 211000Z AUTO 13005KT 10SM CLR 12/10 A3021 RMK AO2 T01210101
KFTG 210942Z AUTO 15005KT 10SM CLR 13/10 A3022 RMK AO2 T01260103
KFTG 210918Z AUTO 19008KT 10SM CLR 13/10 A3022 RMK AO2 T01270103
KFTG 210900Z AUTO 17006KT 10SM CLR 13/10 A3022 RMK AO2 T01290103
KFTG 210842Z AUTO 19007KT 10SM CLR 13/11 A3022 RMK AO2 T01310105
KFTG 210818Z AUTO 20009KT 10SM CLR 14/11 A3023 RMK AO2 T01350107
KFTG 210800Z AUTO 19007KT 10SM CLR 14/11 A3023 RMK AO2 T01350105
KFTG 210742Z AUTO 20009KT 10SM CLR 14/11 A3024 RMK AO2 T01390105
KFTG 210718Z AUTO 19009KT 10SM BKN055 14/11 A3024 RMK AO2 T01410106
KFTG 210700Z AUTO 14006KT 10SM OVC055 15/11 A3024 RMK AO2 T01470108
KFTG 210642Z AUTO 12006KT 10SM BKN065 15/11 A3025 RMK AO2 T01500107
KFTG 210618Z AUTO 10009KT 10SM OVC065 16/11 A3025 RMK AO2 T01600107
KFTG 210600Z AUTO 10011KT 10SM OVC065 16/11 A3025 RMK AO2 T01630106
KFTG 210542Z AUTO 10010KT 10SM OVC065 17/11 A3025 RMK AO2 T01660106
KFTG 210518Z AUTO 09011KT 10SM OVC065 17/11 A3025 RMK AO2 T01700106
KFTG 210500Z AUTO 08006KT 10SM OVC065 17/11 A3025 RMK AO2 T01720105
KFTG 210442Z AUTO 07006KT 10SM BKN065 OVC075 18/10 A3025 RMK AO2 T01770103
KFTG 210418Z AUTO 10004KT 10SM OVC065 19/10 A3026 RMK AO2 T01880101
KFTG 210400Z AUTO 10005KT 10SM OVC065 19/10 A3025 RMK AO2 T01930100
KFTG 210343Z AUTO 06007KT 10SM OVC065 20/10 A3025 RMK AO2 T01950096
KFTG 210319Z AUTO 05007KT 10SM SCT065 BKN075 BKN085 20/10 A3023 RMK AO2 T01950095
KFTG 210247Z 04008KT 10SM BKN050 BKN120 20/09 A3023
KFTG 210149Z 04010G17KT 10SM BKN050 BKN120 22/08 A3021
KFTG 210049Z 02012G19KT 10SM BKN050 BKN120 23/07 A3018
KFTG 202347Z 03014G19KT 10SM BKN050 BKN120 23/07 A3016
KFTG 202255Z 35009G21KT 10SM BKN050 BKN120 25/07 A3016
KFTG 202150Z 02012G20KT 10SM BKN050 BKN120 26/07 A3016
KFTG 202050Z 04009G21KT 10SM BKN045 BKN120 24/06 A3017
KFTG 201958Z 01014G19KT 10SM BKN045 BKN120 24/06 A3017
KFTG 201852Z 01013G19KT 10SM SCT030 24/05 A3018
KFTG 201747Z 35007G18KT 10SM SCT030 23/08 A3018
KFTG 201647Z 35008KT 10SM SCT027 20/12 A3019
KFTG 201548Z 36006KT 10SM BKN016 19/12 A3019
KFTG 201448Z 36011G16KT 10SM BKN010 17/13 A3018
KFTG 201427Z 33007KT 10SM BKN010 BKN013 16/13 A3018
KFTG 201358Z 31004KT 10SM BKN060 16/13 A3018
KFTG 201259Z AUTO 02009KT 10SM CLR 14/12 A3016 RMK AO2 T01420122
KFTG 201247Z 35005KT 10SM FEW090 14/12 A3016
KFTG 201241Z AUTO 21005KT 10SM CLR 14/12 A3016 RMK AO2 T01400119
KFTG 201223Z AUTO 21004KT 10SM CLR 14/12 A3016 RMK AO2 T01350117
KFTG 201200Z AUTO 21005KT 10SM CLR 13/12 A3016 RMK AO2 T01310116
KFTG 201142Z AUTO 20006KT 7SM CLR 13/12 A3016 RMK AO2 T01250115
KFTG 201118Z AUTO 19005KT 7SM CLR 12/11 A3017 RMK AO2 T01200111
KFTG 201100Z AUTO 19005KT 10SM SCT090 12/11 A3016 RMK AO2 T01230111
KFTG 201041Z AUTO 20006KT 10SM BKN090 14/12 A3018 RMK AO2 T01350120
KFTG 201023Z AUTO 21006KT 10SM SCT090 13/12 A3018 RMK AO2 T01300118
KFTG 201000Z AUTO 21004KT 10SM CLR 14/12 A3018 RMK AO2 T01360120
KFTG 200942Z AUTO 20006KT 10SM CLR 14/12 A3018 RMK AO2 T01360120
KFTG 200918Z AUTO 20007KT 10SM CLR 14/12 A3019 RMK AO2 T01370124
KFTG 200900Z AUTO 20007KT 10SM CLR 14/12 A3019 RMK AO2 T01350123
KFTG 200842Z AUTO 20006KT 10SM SCT016 SCT020 SCT100 14/12 A3020 RMK AO2 T01360124
KFTG 200818Z AUTO 13004KT 10SM BKN018 OVC090 14/13 A3020 RMK AO2 T01400129
KFTG 200800Z AUTO 17003KT 10SM BKN018 BKN080 OVC090 14/13 A3020 RMK AO2 T01380127
KFTG 200741Z AUTO 19007KT 10SM BKN018 OVC070 14/13 A3020 RMK AO2 T01410128
KFTG 200723Z AUTO 08003KT 10SM BKN075 BKN080 OVC100 14/13 A3022 RMK AO2 T01400130
KFTG 200700Z AUTO 06004KT 10SM SCT075 SCT100 14/13 A3022 RMK AO2 T01360130
KFTG 200641Z AUTO 03006KT 10SM SCT019 13/13 A3021 RMK AO2 T01330125
KFTG 200623Z AUTO 05004KT 10SM CLR 13/12 A3020 RMK AO2 T01300121
KFTG 200600Z AUTO 00000KT 10SM BKN085 14/13 A3019 RMK AO2 T01410129
KFTG 200542Z AUTO 00000KT 10SM BKN075 OVC090 15/13 A3018 RMK AO2 T01460133
KFTG 200518Z AUTO 33004KT 10SM SCT009 SCT017 OVC075 15/13 A3020 RMK AO2 T01470134
KFTG 200500Z AUTO 33006KT 10SM BKN009 BKN014 OVC075 15/14 A3020 RMK AO2 T01480135
KFTG 200442Z AUTO 30003KT 10SM BKN075 OVC085 14/13 A3018 RMK AO2 T01430132
KFTG 200418Z AUTO 26006KT 10SM BKN085 14/13 A3014 RMK AO2 T01430130
KFTG 200400Z AUTO 28007KT 10SM SCT075 SCT090 14/13 A3015 RMK AO2 T01440130
KFTG 200338Z AUTO 29006KT 10SM CLR 15/13 A3015 RMK AO2 T01450128
KFTG 200320Z AUTO 33009KT 10SM CLR 15/13 A3012 RMK AO2 T01450125
KFTG 200300Z AUTO 34006KT 10SM CLR 15/12 A3012 RMK AO2 T01480124
KFTG 200252Z 33007KT 10SM SCT030 BKN200 15/12 A3012
KFTG 200153Z 33016G25KT 10SM SCT029 BKN070 BKN200 17/12 A3012
KFTG 200058Z 36016G32KT 10SM VCTS SCT014 BKN110 OVC200 16/12 A3007
KFTG 192358Z 03019G24KT 10SM SCT014 BKN100 BKN200 20/15 A3003